Terminal Aerodrome Forecast
Issued by NWS

Home | Current Version | Previous Version | Text Only | Print | Product List | Glossary On
Versions: 1 2 3 4 5 6 7 8 9 10 11 12 13 14 15 16 17
000
FTUS45 KRIW 301700
TAFCOD
TAF
KCOD 301734Z 3018/0118 VRB05KT P6SM VCSH SCT060 BKN100
     FM302000 VRB10G15KT P6SM VCTS SCT040CB BKN080
     FM010100 36008KT 5SM -RA BR OVC030
     FM011200 01007KT 4SM -RASN SCT012 OVC020
     FM011600 01007KT P6SM VCSH OVC030
      AMD LTD TO CLD VIS AND WIND=

USA.gov is the U.S. government's official web portal to all federal, state and local government web resources and services.